createdAt,value
2018-08-23T00:00:01.468Z,86.40
2018-08-23T00:02:33.970Z,83.00
2018-08-23T00:05:03.814Z,102.17
2018-08-23T00:07:33.245Z,79.37
2018-08-23T00:10:03.573Z,100.63
2018-08-23T00:12:44.566Z,89.57
2018-08-23T00:15:17.530Z,88.47
2018-08-23T00:17:47.795Z,93.33
2018-08-23T00:20:21.650Z,82.87
2018-08-23T00:22:51.600Z,93.37
2018-08-23T00:25:21.117Z,96.20
2018-08-23T00:27:50.577Z,81.13
2018-08-23T00:30:21.988Z,98.17
2018-08-23T00:32:51.326Z,92.60
2018-08-23T00:35:21.724Z,88.43
2018-08-23T00:37:51.401Z,117.97
2018-08-23T00:40:20.896Z,98.63
2018-08-23T00:42:56.495Z,100.40
2018-08-23T00:45:25.822Z,93.63
2018-08-23T00:47:56.251Z,107.27
2018-08-23T00:51:02.857Z,105.43
2018-08-23T00:53:33.512Z,95.37
2018-08-23T00:56:24.158Z,103.43
2018-08-23T00:59:08.615Z,93.97
2018-08-23T01:01:38.765Z,97.03
2018-08-23T01:04:08.014Z,125.93
2018-08-23T01:06:42.288Z,112.57
2018-08-23T01:09:12.747Z,100.73
2018-08-23T01:11:42.481Z,102.97
2018-08-23T01:14:12.007Z,111.33
2018-08-23T01:16:41.554Z,98.87
2018-08-23T01:19:16.405Z,116.10
2018-08-23T01:21:49.985Z,102.70
2018-08-23T01:24:19.576Z,98.80
2018-08-23T01:26:49.143Z,99.67
2018-08-23T01:29:30.570Z,107.37
2018-08-23T01:32:12.361Z,106.53
2018-08-23T01:34:42.242Z,107.47
2018-08-23T01:37:13.056Z,110.17
2018-08-23T01:39:42.327Z,114.90
2018-08-23T01:42:13.194Z,120.53
2018-08-23T01:44:42.362Z,115.63
2018-08-23T01:47:11.808Z,113.67
2018-08-23T01:49:41.021Z,103.87
2018-08-23T01:52:10.673Z,117.60
2018-08-23T01:54:43.395Z,104.60
2018-08-23T01:57:13.627Z,116.33
2018-08-23T01:59:43.023Z,109.63
2018-08-23T02:02:17.195Z,126.73
2018-08-23T02:04:47.626Z,100.53
2018-08-23T02:07:16.872Z,105.17
2018-08-23T02:09:46.561Z,116.47
2018-08-23T02:12:15.822Z,112.47
2018-08-23T02:14:46.347Z,115.77
2018-08-23T02:17:15.999Z,118.37
2018-08-23T02:19:48.212Z,108.23
2018-08-23T02:22:17.541Z,115.47
2018-08-23T02:24:49.400Z,102.83
2018-08-23T02:27:20.166Z,115.00
2018-08-23T02:29:49.837Z,99.43
2018-08-23T02:32:19.127Z,114.47
2018-08-23T02:34:49.476Z,105.47
2018-08-23T02:37:20.102Z,104.67
2018-08-23T02:39:49.718Z,221.77
2018-08-23T02:42:19.869Z,117.23
2018-08-23T02:44:49.068Z,117.63
2018-08-23T02:47:18.760Z,120.30
2018-08-23T02:49:48.185Z,118.03
2018-08-23T02:52:17.378Z,119.10
2018-08-23T02:54:46.944Z,119.47
2018-08-23T02:57:16.757Z,106.47
2018-08-23T02:59:46.153Z,125.03
2018-08-23T03:02:16.068Z,114.33
2018-08-23T03:04:45.372Z,103.20
2018-08-23T03:07:15.692Z,115.67
2018-08-23T03:09:45.953Z,110.57
2018-08-23T03:12:23.068Z,103.03
2018-08-23T03:15:03.772Z,117.10
2018-08-23T03:17:40.693Z,115.53
2018-08-23T03:20:14.656Z,113.57
2018-08-23T03:22:46.498Z,115.53
2018-08-23T03:25:17.976Z,124.53
2018-08-23T03:27:47.416Z,120.60
2018-08-23T03:30:20.355Z,112.80
2018-08-23T03:32:49.792Z,113.77
2018-08-23T03:35:19.406Z,114.63
2018-08-23T03:37:48.824Z,123.20
2018-08-23T03:40:18.417Z,127.90
2018-08-23T03:42:47.990Z,128.47
2018-08-23T03:45:29.561Z,129.30
2018-08-23T03:47:59.189Z,129.43
2018-08-23T03:50:28.588Z,121.00
2018-08-23T03:52:58.448Z,112.50
2018-08-23T03:55:27.705Z,119.90
2018-08-23T03:58:01.862Z,125.93
2018-08-23T04:00:37.270Z,134.47
2018-08-23T04:03:15.735Z,114.60
2018-08-23T04:05:44.956Z,126.50
2018-08-23T04:08:14.676Z,115.93
2018-08-23T04:10:44.125Z,105.40
2018-08-23T04:13:13.475Z,105.83
2018-08-23T04:15:43.290Z,107.97
2018-08-23T04:18:17.827Z,117.40
2018-08-23T04:20:55.067Z,132.87
2018-08-23T04:23:24.902Z,121.03
2018-08-23T04:25:54.253Z,126.83
2018-08-23T04:28:23.681Z,126.50
2018-08-23T04:30:53.055Z,113.17
2018-08-23T04:33:22.436Z,126.33
2018-08-23T04:35:52.224Z,118.70
2018-08-23T04:38:21.969Z,121.70
2018-08-23T04:40:57.807Z,115.70
2018-08-23T04:43:27.167Z,124.97
2018-08-23T04:45:56.673Z,115.67
2018-08-23T04:48:26.061Z,114.97
2018-08-23T04:50:56.053Z,115.53
2018-08-23T04:53:38.473Z,124.33
2018-08-23T04:56:08.070Z,110.83
2018-08-23T04:58:38.127Z,109.03
2018-08-23T05:01:07.630Z,120.80
2018-08-23T05:03:36.918Z,177.03
2018-08-23T05:06:06.264Z,111.67
2018-08-23T05:08:38.361Z,131.13
2018-08-23T05:11:09.786Z,134.40
2018-08-23T05:13:40.171Z,132.60
2018-08-23T05:16:09.510Z,126.50
2018-08-23T05:18:38.766Z,134.43
2018-08-23T05:21:08.557Z,138.97
2018-08-23T05:23:38.712Z,138.00
2018-08-23T05:26:13.140Z,147.20
2018-08-23T05:28:47.060Z,146.97
2018-08-23T05:31:25.279Z,146.60
2018-08-23T05:34:01.798Z,151.43
2018-08-23T05:36:39.426Z,140.70
2018-08-23T05:39:35.379Z,142.27
2018-08-23T05:42:12.691Z,148.17
2018-08-23T05:44:43.663Z,162.83
2018-08-23T05:47:15.747Z,131.93
2018-08-23T05:49:45.370Z,135.07
2018-08-23T05:52:15.725Z,141.33
2018-08-23T05:54:45.053Z,143.27
2018-08-23T05:57:14.901Z,124.73
2018-08-23T05:59:44.983Z,146.33
2018-08-23T06:02:14.268Z,160.07
2018-08-23T06:04:45.117Z,150.27
2018-08-23T06:07:15.841Z,136.50
2018-08-23T06:09:46.063Z,146.40
2018-08-23T06:12:16.317Z,128.23
2018-08-23T06:14:45.769Z,141.83
2018-08-23T06:17:15.028Z,127.97
2018-08-23T06:19:45.276Z,134.27
2018-08-23T06:22:15.528Z,136.07
2018-08-23T06:24:45.186Z,132.83
2018-08-23T06:27:28.175Z,128.00
2018-08-23T06:30:06.000Z,129.57
2018-08-23T06:32:35.935Z,123.87
2018-08-23T06:35:05.547Z,120.43
2018-08-23T06:37:38.681Z,115.83
2018-08-23T06:40:08.884Z,128.90
2018-08-23T06:42:46.602Z,120.33
2018-08-23T06:45:15.931Z,157.10
2018-08-23T06:47:50.618Z,101.90
2018-08-23T06:50:23.212Z,103.60
2018-08-23T06:52:52.627Z,97.27
2018-08-23T06:55:27.280Z,102.30
2018-08-23T06:58:00.531Z,99.43
2018-08-23T07:00:31.429Z,99.23
2018-08-23T07:03:04.970Z,107.17
2018-08-23T07:05:34.864Z,106.13
2018-08-23T07:08:04.474Z,108.93
2018-08-23T07:10:34.264Z,112.30
2018-08-23T07:13:04.154Z,100.50
2018-08-23T07:15:34.367Z,109.30
2018-08-23T07:18:10.388Z,139.33
2018-08-23T07:20:40.773Z,115.83
2018-08-23T07:23:20.982Z,104.40
2018-08-23T07:25:52.140Z,121.27
2018-08-23T07:28:22.273Z,112.13
2018-08-23T07:30:54.571Z,118.47
2018-08-23T07:33:24.126Z,111.43
2018-08-23T07:36:05.001Z,116.07
2018-08-23T07:38:34.895Z,129.27
2018-08-23T07:41:05.341Z,116.17
2018-08-23T07:43:35.235Z,117.10
2018-08-23T07:46:06.999Z,110.83
2018-08-23T07:48:38.245Z,112.67
2018-08-23T07:51:24.587Z,129.03
2018-08-23T07:53:57.820Z,124.87
2018-08-23T07:56:30.551Z,135.83
2018-08-23T07:59:03.354Z,126.00
2018-08-23T08:01:34.523Z,143.97
2018-08-23T08:04:06.661Z,125.43
2018-08-23T08:06:38.192Z,120.47
2018-08-23T08:09:14.243Z,114.07
2018-08-23T08:11:56.080Z,120.60
2018-08-23T08:14:40.808Z,126.50
2018-08-23T08:17:18.567Z,110.90
2018-08-23T08:20:27.842Z,111.13
2018-08-23T08:23:03.080Z,96.80
2018-08-23T08:25:34.161Z,87.73
2018-08-23T08:28:05.273Z,82.17
2018-08-23T08:30:42.485Z,77.90
2018-08-23T08:33:17.141Z,71.70
2018-08-23T08:35:47.526Z,71.93
2018-08-23T08:38:18.417Z,61.90
2018-08-23T08:40:52.341Z,67.83
2018-08-23T08:43:24.089Z,101.73
2018-08-23T08:45:56.223Z,51.00
2018-08-23T08:48:33.564Z,55.67
2018-08-23T08:51:22.528Z,59.10
2018-08-23T08:53:55.057Z,58.63
2018-08-23T08:56:33.500Z,37.00
2018-08-23T08:59:03.420Z,38.13
2018-08-23T09:01:33.399Z,24.33
2018-08-23T09:04:04.703Z,24.57
2018-08-23T09:06:51.804Z,24.53
2018-08-23T09:09:35.398Z,21.93
2018-08-23T09:12:11.603Z,22.20
2018-08-23T09:14:43.392Z,21.30
2018-08-23T09:17:50.793Z,16.70
2018-08-23T09:20:21.757Z,11.57
2018-08-23T09:22:53.744Z,23.70
2018-08-23T09:25:27.778Z,15.93
2018-08-23T09:27:58.218Z,20.60
2018-08-23T09:30:31.108Z,13.30
2018-08-23T09:33:06.868Z,53.70
2018-08-23T09:35:37.606Z,15.43
2018-08-23T09:38:16.178Z,16.10
2018-08-23T09:40:49.082Z,22.67
2018-08-23T09:43:19.809Z,21.67
2018-08-23T09:45:51.268Z,17.30
2018-08-23T09:48:23.808Z,21.33
2018-08-23T09:50:57.121Z,18.07
2018-08-23T09:53:30.798Z,19.13
2018-08-23T09:56:02.729Z,18.83
2018-08-23T09:58:37.892Z,18.33
2018-08-23T10:01:14.104Z,13.03
2018-08-23T10:05:50.876Z,14.90
2018-08-23T10:08:28.255Z,12.40
2018-08-23T10:11:05.716Z,14.03
2018-08-23T10:13:42.208Z,10.40
2018-08-23T10:16:17.204Z,6.03
2018-08-23T10:18:51.414Z,8.00
2018-08-23T10:21:25.680Z,10.10
2018-08-23T10:24:05.413Z,8.17
2018-08-23T10:26:37.287Z,6.10
2018-08-23T10:29:08.085Z,12.40
2018-08-23T10:31:40.173Z,13.30
2018-08-23T10:34:10.897Z,11.43
2018-08-23T10:36:41.893Z,13.97
2018-08-23T10:39:13.747Z,13.37
2018-08-23T10:41:44.239Z,11.13
2018-08-23T10:44:15.121Z,25.20
2018-08-23T10:46:51.250Z,9.77
2018-08-23T10:49:21.843Z,14.10
2018-08-23T10:51:53.577Z,8.10
2018-08-23T10:54:24.129Z,17.03
2018-08-23T10:56:56.707Z,9.10
2018-08-23T10:59:27.407Z,7.20
2018-08-23T11:02:06.679Z,15.37
2018-08-23T11:04:38.841Z,8.23
2018-08-23T11:07:11.618Z,9.60
2018-08-23T11:09:47.535Z,10.20
2018-08-23T11:12:23.941Z,9.90
2018-08-23T11:14:57.342Z,8.50
2018-08-23T11:17:39.381Z,5.87
2018-08-23T11:20:29.188Z,11.60
2018-08-23T11:23:02.982Z,11.63
2018-08-23T11:25:33.946Z,14.83
2018-08-23T11:28:15.589Z,15.47
2018-08-23T11:30:48.250Z,6.30
2018-08-23T11:33:19.634Z,19.10
2018-08-23T11:35:50.118Z,8.50
2018-08-23T11:38:20.938Z,6.43
2018-08-23T11:40:52.585Z,8.60
2018-08-23T11:43:23.271Z,4.93
2018-08-23T11:46:24.425Z,7.73
2018-08-23T11:49:00.051Z,6.30
2018-08-23T11:51:33.891Z,20.43
2018-08-23T11:54:06.655Z,6.30
2018-08-23T11:56:38.338Z,11.27
2018-08-23T11:59:13.125Z,3.90
2018-08-23T12:01:46.822Z,9.70
2018-08-23T12:04:18.289Z,5.30
2018-08-23T12:06:49.415Z,6.60
2018-08-23T12:09:24.663Z,6.13
2018-08-23T12:11:57.910Z,5.47
2018-08-23T12:14:29.630Z,9.10
2018-08-23T12:17:00.313Z,16.77
2018-08-23T12:19:32.088Z,25.77
2018-08-23T12:22:05.138Z,13.13
2018-08-23T12:24:37.687Z,13.80
2018-08-23T12:27:07.977Z,8.83
2018-08-23T12:29:40.441Z,5.20
2018-08-23T12:32:11.634Z,9.20
2018-08-23T12:34:51.589Z,10.40
2018-08-23T12:37:28.076Z,9.80
2018-08-23T12:40:04.415Z,8.03
2018-08-23T12:42:44.346Z,11.40
2018-08-23T12:45:16.624Z,11.70
2018-08-23T12:47:47.721Z,8.53
2018-08-23T12:50:20.476Z,9.73
2018-08-23T12:52:51.266Z,10.37
2018-08-23T12:55:24.094Z,7.53
2018-08-23T12:58:01.146Z,12.30
2018-08-23T13:00:35.734Z,11.63
2018-08-23T13:03:08.762Z,9.00
2018-08-23T13:05:39.729Z,14.13
2018-08-23T13:08:11.003Z,19.00
2018-08-23T13:10:41.374Z,9.80
2018-08-23T13:13:12.297Z,10.07
2018-08-23T13:15:49.064Z,10.70
2018-08-23T13:18:44.543Z,14.17
2018-08-23T13:21:28.870Z,15.27
2018-08-23T13:24:00.837Z,18.50
2018-08-23T13:26:39.406Z,20.73
2018-08-23T13:29:10.432Z,11.13
2018-08-23T13:31:40.990Z,24.67
2018-08-23T13:34:11.844Z,9.40
2018-08-23T13:36:43.455Z,9.97
2018-08-23T13:39:15.253Z,20.40
2018-08-23T13:41:55.247Z,18.07
2018-08-23T13:44:42.093Z,16.73
2018-08-23T13:47:15.681Z,23.63
2018-08-23T13:49:50.533Z,24.03
2018-08-23T13:52:22.213Z,18.70
2018-08-23T13:54:55.913Z,11.33
2018-08-23T13:57:29.553Z,25.50
2018-08-23T14:00:14.260Z,21.80
2018-08-23T14:02:46.215Z,16.53
2018-08-23T14:05:17.081Z,13.17
2018-08-23T14:07:53.322Z,13.20
2018-08-23T14:10:35.919Z,20.20
2018-08-23T14:13:08.648Z,24.63
2018-08-23T14:15:46.815Z,16.63
2018-08-23T14:18:19.915Z,18.70
2018-08-23T14:20:52.255Z,18.30
2018-08-23T14:23:30.671Z,16.23
2018-08-23T14:26:08.990Z,22.93
2018-08-23T14:28:40.615Z,18.43
2018-08-23T14:31:14.825Z,23.73
2018-08-23T14:33:46.027Z,26.27
2018-08-23T14:36:17.834Z,25.47
2018-08-23T14:38:51.744Z,17.53
2018-08-23T14:41:28.313Z,34.83
2018-08-23T14:44:22.661Z,21.80
2018-08-23T14:46:57.933Z,22.50
2018-08-23T14:49:38.128Z,34.97
2018-08-23T14:52:15.496Z,31.03
2018-08-23T14:54:52.401Z,19.00
2018-08-23T14:57:31.371Z,16.63
2018-08-23T15:00:03.094Z,28.03
2018-08-23T15:02:37.665Z,19.17
2018-08-23T15:05:09.295Z,17.00
2018-08-23T15:07:52.901Z,18.23
2018-08-23T15:10:23.615Z,20.27
2018-08-23T15:12:56.548Z,18.57
2018-08-23T15:15:33.213Z,22.27
2018-08-23T15:18:04.320Z,20.90
2018-08-23T15:20:36.923Z,22.43
2018-08-23T15:23:08.232Z,18.83
2018-08-23T15:25:43.159Z,22.20
2018-08-23T15:28:13.513Z,19.60
2018-08-23T15:30:44.645Z,18.80
2018-08-23T15:33:15.468Z,21.60
2018-08-23T15:35:46.259Z,19.00
2018-08-23T15:38:18.051Z,18.57
2018-08-23T15:40:49.277Z,22.23
2018-08-23T15:43:22.445Z,23.73
2018-08-23T15:45:54.444Z,23.73
2018-08-23T15:48:26.850Z,23.47
2018-08-23T15:53:56.199Z,15.63
2018-08-23T15:56:29.218Z,16.43
2018-08-23T15:59:02.842Z,20.33
2018-08-23T16:01:40.193Z,16.20
2018-08-23T16:04:13.352Z,21.13
2018-08-23T16:06:47.346Z,30.33
2018-08-23T16:09:19.174Z,17.93
2018-08-23T16:11:50.937Z,16.13
2018-08-23T16:14:54.535Z,17.90
2018-08-23T16:17:40.204Z,12.43
2018-08-23T16:20:17.781Z,17.77
2018-08-23T16:23:05.190Z,21.13
2018-08-23T16:25:47.740Z,26.80
2018-08-23T16:28:21.262Z,23.47
2018-08-23T16:30:56.311Z,23.73
2018-08-23T16:33:31.282Z,24.07
2018-08-23T16:36:05.708Z,31.20
2018-08-23T16:38:37.685Z,28.20
2018-08-23T16:41:41.404Z,44.00
2018-08-23T16:44:19.519Z,24.83
2018-08-23T16:46:56.936Z,30.50
2018-08-23T16:49:42.226Z,35.03
2018-08-23T16:52:24.189Z,50.30
2018-08-23T16:58:10.205Z,29.03
2018-08-23T17:00:47.433Z,27.43
2018-08-23T17:03:21.216Z,23.60
2018-08-23T17:05:57.187Z,24.17
2018-08-23T17:08:31.733Z,25.23
2018-08-23T17:11:07.160Z,26.77
2018-08-23T17:13:48.303Z,35.00
2018-08-23T17:16:28.410Z,21.60
2018-08-23T17:19:06.890Z,19.53
2018-08-23T17:24:50.169Z,27.37
2018-08-23T17:27:36.905Z,25.77
2018-08-23T17:30:09.547Z,25.83
2018-08-23T17:32:43.096Z,21.67
2018-08-23T17:35:20.109Z,22.60
2018-08-23T17:37:52.429Z,20.27
2018-08-23T17:40:33.302Z,18.97
2018-08-23T17:43:09.625Z,24.83
2018-08-23T17:46:41.679Z,14.80
2018-08-23T17:49:38.579Z,18.10
2018-08-23T17:52:10.922Z,29.43
2018-08-23T17:54:41.659Z,18.93
2018-08-23T17:57:12.718Z,26.17
2018-08-23T17:59:51.248Z,18.07
2018-08-23T18:02:27.398Z,14.97
2018-08-23T18:05:15.584Z,19.83
2018-08-23T18:07:55.096Z,36.47
2018-08-23T18:10:31.221Z,17.70
2018-08-23T18:13:04.655Z,20.10
2018-08-23T18:15:40.774Z,14.63
2018-08-23T18:18:16.114Z,12.27
2018-08-23T18:20:49.410Z,17.83
2018-08-23T18:23:34.549Z,16.67
2018-08-23T18:26:09.475Z,15.83
2018-08-23T18:28:42.610Z,14.20
2018-08-23T18:31:13.799Z,21.63
2018-08-23T18:33:50.108Z,8.67
2018-08-23T18:36:46.302Z,15.43
2018-08-23T18:39:42.852Z,10.07
2018-08-23T18:42:17.169Z,18.60
2018-08-23T18:45:00.887Z,23.83
2018-08-23T18:47:45.116Z,22.50
2018-08-23T18:50:24.107Z,15.83
2018-08-23T18:53:23.255Z,23.27
2018-08-23T18:55:53.573Z,16.90
2018-08-23T18:58:26.160Z,18.17
2018-08-23T19:01:00.149Z,15.47
2018-08-23T19:03:34.403Z,20.03
2018-08-23T19:06:11.726Z,16.00
2018-08-23T19:08:54.782Z,19.00
2018-08-23T19:11:26.525Z,11.93
2018-08-23T19:16:56.801Z,15.97
2018-08-23T19:19:29.624Z,23.73
2018-08-23T19:22:04.657Z,18.37
2018-08-23T19:24:39.767Z,19.73
2018-08-23T19:27:12.501Z,21.53
2018-08-23T19:29:44.313Z,12.50
2018-08-23T19:32:19.105Z,23.00
2018-08-23T19:34:59.555Z,30.03
2018-08-23T19:37:55.039Z,8.97
2018-08-23T19:40:36.320Z,14.10
2018-08-23T19:43:13.096Z,11.87
2018-08-23T19:45:52.086Z,13.53
2018-08-23T19:48:25.363Z,18.90
2018-08-23T19:51:22.850Z,30.80
2018-08-23T19:57:12.401Z,31.13
2018-08-23T19:59:46.952Z,19.40
2018-08-23T20:02:21.245Z,38.50
2018-08-23T20:04:56.530Z,17.00
2018-08-23T20:07:28.183Z,30.10
2018-08-23T20:10:04.399Z,23.73
2018-08-23T20:12:39.843Z,11.93
2018-08-23T20:15:10.768Z,15.97
2018-08-23T20:17:41.515Z,21.20
2018-08-23T20:20:30.326Z,25.93
2018-08-23T20:23:08.704Z,13.30
2018-08-23T20:25:42.446Z,31.53
2018-08-23T20:28:16.970Z,16.43
2018-08-23T20:30:54.386Z,79.27
2018-08-23T20:33:29.478Z,63.27
2018-08-23T20:36:05.212Z,24.90
2018-08-23T20:38:43.382Z,20.27
2018-08-23T20:41:34.616Z,21.57
2018-08-23T20:44:52.733Z,15.27
2018-08-23T20:47:31.271Z,26.00
2018-08-23T20:50:10.569Z,19.40
2018-08-23T20:52:42.581Z,32.50
2018-08-23T20:55:18.864Z,15.13
2018-08-23T20:57:57.007Z,25.70
2018-08-23T21:00:33.745Z,25.17
2018-08-23T21:03:20.084Z,19.03
2018-08-23T21:05:54.840Z,7.83
2018-08-23T21:08:40.192Z,17.10
2018-08-23T21:11:14.818Z,20.07
2018-08-23T21:13:52.190Z,20.23
2018-08-23T21:16:46.102Z,39.73
2018-08-23T21:22:48.244Z,13.00
2018-08-23T21:25:34.921Z,20.10
2018-08-23T21:28:11.078Z,32.20
2018-08-23T21:30:42.743Z,48.00
2018-08-23T21:33:26.687Z,33.83
2018-08-23T21:36:13.862Z,38.83
2018-08-23T21:38:50.008Z,25.97
2018-08-23T21:41:20.252Z,20.40
2018-08-23T21:43:54.474Z,49.80
2018-08-23T21:46:52.194Z,42.03
2018-08-23T21:49:31.568Z,24.60
2018-08-23T21:52:18.733Z,20.73
2018-08-23T21:54:56.596Z,30.20
2018-08-23T21:57:49.139Z,34.57
2018-08-23T22:00:25.440Z,36.23
2018-08-23T22:03:03.226Z,23.87
2018-08-23T22:05:35.070Z,22.03
2018-08-23T22:08:16.334Z,24.83
2018-08-23T22:10:59.140Z,17.23
2018-08-23T22:13:31.900Z,16.30
2018-08-23T22:16:04.004Z,14.40
2018-08-23T22:18:43.749Z,49.20
2018-08-23T22:21:14.140Z,40.23
2018-08-23T22:23:47.073Z,50.17
2018-08-23T22:26:19.874Z,49.93
2018-08-23T22:28:56.672Z,12.73
2018-08-23T22:31:40.018Z,40.50
2018-08-23T22:34:13.527Z,31.00
2018-08-23T22:36:50.840Z,32.37
2018-08-23T22:39:29.422Z,71.43
2018-08-23T22:42:05.201Z,61.17
2018-08-23T22:44:43.216Z,42.63
2018-08-23T22:47:14.659Z,27.53
2018-08-23T22:49:46.857Z,19.20
2018-08-23T22:52:17.552Z,28.83
2018-08-23T22:54:49.075Z,23.97
2018-08-23T22:57:22.575Z,64.17
2018-08-23T22:59:52.393Z,17.80
2018-08-23T23:02:28.485Z,17.57
2018-08-23T23:05:04.084Z,14.80
2018-08-23T23:07:34.559Z,45.33
2018-08-23T23:10:07.156Z,74.50
2018-08-23T23:12:41.011Z,21.03
2018-08-23T23:15:17.629Z,33.90
2018-08-23T23:17:59.816Z,36.70
2018-08-23T23:20:31.877Z,19.47
2018-08-23T23:23:10.858Z,26.83
2018-08-23T23:25:48.024Z,35.40
2018-08-23T23:28:21.749Z,20.67
2018-08-23T23:30:51.795Z,24.13
2018-08-23T23:33:21.468Z,14.87
2018-08-23T23:35:53.634Z,20.00
2018-08-23T23:38:26.355Z,35.73
2018-08-23T23:41:11.256Z,12.00
2018-08-23T23:43:43.358Z,25.57
2018-08-23T23:46:16.742Z,13.23
2018-08-23T23:48:46.385Z,8.73
2018-08-23T23:51:20.795Z,10.30
2018-08-23T23:54:03.251Z,28.00
2018-08-23T23:56:37.375Z,25.10
2018-08-23T23:59:36.687Z,27.17
